Time;durP1;ratioP1;P1;durP2;ratioP2;P2;SDS_P1;SDS_P2;PMS_P1;PMS_P2;Temp;Humidity;BMP_temperature;BMP_pressure;BME280_temperature;BME280_humidity;BME280_pressure;Samples;Min_cycle;Max_cycle;Signal;HPM_P1;HPM_P2
2022/05/19 00:01:29;;;;;;;42.97;31.83;;;14.10;1.00;;;;;;5039529;28;20111;-83
2022/05/19 00:03:55;;;;;;;50.58;35.67;;;14.20;99.90;;;;;;5020008;28;20043;-83
2022/05/19 00:06:20;;;;;;;47.25;36.78;;;14.30;99.90;;;;;;5055410;28;20172;-82
2022/05/19 00:08:49;;;;;;;33.53;27.98;;;14.30;99.90;;;;;;5038702;28;20112;-82
2022/05/19 00:11:18;;;;;;;34.35;27.85;;;14.20;99.90;;;;;;5030073;28;20033;-83
2022/05/19 00:13:44;;;;;;;32.95;28.52;;;14.30;99.90;;;;;;5068919;28;20087;-83
2022/05/19 00:16:10;;;;;;;50.47;37.50;;;14.30;97.80;;;;;;5049509;28;20361;-83
2022/05/19 00:18:37;;;;;;;33.85;30.20;;;14.30;99.90;;;;;;5050081;28;20258;-83
2022/05/19 00:21:03;;;;;;;31.63;28.23;;;14.30;99.90;;;;;;5042001;28;20048;-82
2022/05/19 00:23:29;;;;;;;34.15;30.10;;;14.30;99.90;;;;;;5030055;28;20468;-83
2022/05/19 00:25:55;;;;;;;37.42;30.65;;;14.30;99.90;;;;;;5023409;28;20028;-83
2022/05/19 00:28:24;;;;;;;39.15;32.55;;;14.30;99.90;;;;;;5025948;28;20532;-83
2022/05/19 00:31:09;;;;;;;38.28;31.70;;;14.30;99.90;;;;;;5041009;28;20120;-83
2022/05/19 00:33:35;;;;;;;40.15;33.97;;;14.30;99.90;;;;;;5023310;28;20536;-82
2022/05/19 00:36:13;;;;;;;45.05;33.63;;;14.40;94.70;;;;;;5023149;28;20144;-82
2022/05/19 00:38:41;;;;;;;36.03;30.45;;;14.40;97.00;;;;;;5039500;28;20037;-83
2022/05/19 00:41:08;;;;;;;36.10;31.25;;;14.30;24.70;;;;;;5023954;28;20054;-82
2022/05/19 00:43:40;;;;;;;42.63;33.88;;;14.30;50.90;;;;;;5024883;28;20091;-82
2022/05/19 00:46:21;;;;;;;45.08;36.08;;;14.30;84.40;;;;;;5043930;28;20500;-82
2022/05/19 00:49:19;;;;;;;44.08;36.10;;;14.20;18.80;;;;;;5038948;28;20119;-82
2022/05/19 00:52:12;;;;;;;46.05;37.72;;;14.20;66.70;;;;;;5038121;28;20045;-82
2022/05/19 00:54:43;;;;;;;39.60;34.67;;;14.30;93.80;;;;;;5058134;28;20040;-82
2022/05/19 00:57:14;;;;;;;53.70;43.10;;;14.30;92.70;;;;;;5048163;28;20178;-82
2022/05/19 00:59:46;;;;;;;44.53;36.00;;;14.20;99.90;;;;;;5051342;28;20043;-82
2022/05/19 01:02:16;;;;;;;52.05;38.55;;;14.20;99.90;;;;;;5051169;28;20053;-82
2022/05/19 01:04:56;;;;;;;44.08;38.00;;;14.30;99.90;;;;;;5028043;28;20063;-82
2022/05/19 01:08:09;;;;;;;45.53;37.50;;;14.20;99.90;;;;;;5016515;28;20400;-82
2022/05/19 01:10:39;;;;;;;48.65;39.75;;;14.20;99.90;;;;;;5010746;28;20754;-82
2022/05/19 01:13:06;;;;;;;53.03;40.38;;;14.20;99.90;;;;;;5066345;28;20056;-82
2022/05/19 01:15:40;;;;;;;50.60;41.72;;;14.20;99.90;;;;;;5023846;28;20063;-82
2022/05/19 01:18:06;;;;;;;59.90;44.53;;;14.20;99.90;;;;;;5020636;28;20199;-82
2022/05/19 01:20:34;;;;;;;54.60;45.17;;;14.20;99.90;;;;;;5039407;28;20113;-82
2022/05/19 01:23:28;;;;;;;59.80;44.60;;;14.30;99.90;;;;;;5041382;28;20426;-82
2022/05/19 01:26:15;;;;;;;62.30;46.85;;;14.30;99.90;;;;;;5023635;28;20458;-82
2022/05/19 01:28:43;;;;;;;52.00;41.60;;;14.20;99.90;;;;;;5041592;28;20472;-83
2022/05/19 01:31:34;;;;;;;54.15;41.90;;;14.20;99.90;;;;;;5018212;28;20124;-83
2022/05/19 01:34:02;;;;;;;53.03;38.92;;;14.20;99.90;;;;;;5064988;28;20051;-82
2022/05/19 01:36:28;;;;;;;47.20;40.38;;;14.10;99.90;;;;;;5039391;28;20102;-83
2022/05/19 01:39:02;;;;;;;54.30;42.67;;;14.10;99.90;;;;;;5041484;28;20186;-82
2022/05/19 01:41:38;;;;;;;48.55;39.58;;;14.20;99.90;;;;;;5048465;28;20120;-82
2022/05/19 01:44:17;;;;;;;61.20;46.40;;;14.10;99.90;;;;;;5036879;28;20466;-83
2022/05/19 01:46:47;;;;;;;60.20;47.13;;;14.20;99.90;;;;;;5042275;28;20068;-82
2022/05/19 01:49:30;;;;;;;60.28;45.22;;;14.30;99.90;;;;;;5034895;28;20049;-82
2022/05/19 01:52:02;;;;;;;58.67;46.10;;;14.20;99.90;;;;;;5018742;28;20043;-83
2022/05/19 01:54:36;;;;;;;56.80;43.30;;;14.30;99.90;;;;;;5026771;28;20040;-82
2022/05/19 01:57:24;;;;;;;52.17;42.08;;;14.30;99.90;;;;;;5034261;28;20063;-82
2022/05/19 02:00:10;;;;;;;66.72;47.90;;;14.30;99.90;;;;;;5021717;28;20216;-85
2022/05/19 02:02:58;;;;;;;59.13;45.63;;;14.30;99.90;;;;;;5015559;28;20041;-84
2022/05/19 02:05:35;;;;;;;76.43;52.40;;;14.30;99.90;;;;;;5040511;28;20092;-84
2022/05/19 02:08:03;;;;;;;55.50;43.10;;;14.30;99.90;;;;;;5039485;28;20045;-85
2022/05/19 02:10:37;;;;;;;57.67;45.30;;;14.30;99.90;;;;;;5039339;28;20063;-85
2022/05/19 02:13:03;;;;;;;56.30;45.08;;;14.20;99.90;;;;;;5022581;28;20037;-85
2022/05/19 02:15:34;;;;;;;58.70;44.30;;;14.20;99.90;;;;;;5028061;28;20125;-85
2022/05/19 02:18:00;;;;;;;62.15;48.05;;;14.30;99.90;;;;;;5022781;28;20479;-85
2022/05/19 02:20:29;;;;;;;64.10;48.35;;;14.30;99.90;;;;;;5021757;28;20052;-85
2022/05/19 02:22:55;;;;;;;71.50;52.72;;;14.20;99.90;;;;;;5042370;28;20115;-84
2022/05/19 02:25:26;;;;;;;70.38;52.25;;;14.30;99.90;;;;;;5027170;28;20044;-85
2022/05/19 02:28:02;;;;;;;81.88;56.28;;;14.30;99.90;;;;;;5062169;28;20735;-85
2022/05/19 02:30:30;;;;;;;104.05;68.93;;;14.30;99.90;;;;;;5051424;28;20044;-84
2022/05/19 02:32:56;;;;;;;84.80;61.22;;;14.40;99.90;;;;;;5024043;28;20112;-84
2022/05/19 02:35:23;;;;;;;96.90;68.90;;;14.40;99.90;;;;;;5022892;28;20041;-85
2022/05/19 02:37:56;;;;;;;95.18;69.35;;;14.40;99.90;;;;;;5040760;28;20065;-84
2022/05/19 02:40:25;;;;;;;103.63;72.38;;;14.40;99.90;;;;;;5023141;28;20029;-85
2022/05/19 02:42:50;;;;;;;101.95;72.78;;;14.40;99.90;;;;;;5038661;28;20029;-85
2022/05/19 02:45:21;;;;;;;105.20;76.13;;;14.50;99.90;;;;;;5040046;28;20044;-84
2022/05/19 02:47:47;;;;;;;109.60;74.47;;;14.60;99.90;;;;;;5022552;28;20135;-85
2022/05/19 02:50:15;;;;;;;100.05;70.40;;;14.50;99.90;;;;;;5038230;28;20049;-85
2022/05/19 02:52:40;;;;;;;90.90;70.65;;;14.60;99.90;;;;;;5035666;28;20039;-86
2022/05/19 02:55:06;;;;;;;100.55;74.85;;;14.60;99.90;;;;;;5043553;28;20373;-85
2022/05/19 02:57:32;;;;;;;99.28;74.85;;;14.60;99.90;;;;;;5019288;28;20051;-85
2022/05/19 03:00:06;;;;;;;102.10;77.28;;;14.60;99.90;;;;;;5048869;28;20045;-85
2022/05/19 03:02:31;;;;;;;114.40;81.82;;;14.70;99.90;;;;;;5070662;28;20585;-85
2022/05/19 03:04:58;;;;;;;115.50;82.30;;;14.80;99.90;;;;;;5043031;28;20052;-85
2022/05/19 03:07:24;;;;;;;121.05;84.72;;;14.80;99.90;;;;;;5040288;28;20033;-84
2022/05/19 03:09:56;;;;;;;111.38;80.15;;;14.80;99.90;;;;;;5054173;28;20111;-85
2022/05/19 03:12:21;;;;;;;97.18;75.13;;;14.80;99.90;;;;;;5051518;28;20040;-85
2022/05/19 03:14:50;;;;;;;100.50;74.88;;;14.80;99.90;;;;;;5026165;28;20143;-85
2022/05/19 03:17:15;;;;;;;114.72;81.65;;;14.90;99.90;;;;;;5036718;28;20116;-84
2022/05/19 03:19:41;;;;;;;112.10;82.13;;;14.90;99.90;;;;;;5020445;28;20196;-85
2022/05/19 03:22:07;;;;;;;109.72;78.68;;;14.90;99.90;;;;;;5054681;28;20035;-85
2022/05/19 03:24:33;;;;;;;104.95;78.28;;;14.90;99.90;;;;;;5044363;28;20036;-85
2022/05/19 03:26:59;;;;;;;100.38;76.90;;;14.90;99.90;;;;;;5049348;28;20563;-85
2022/05/19 03:29:26;;;;;;;97.82;72.22;;;15.00;99.90;;;;;;5043264;28;20856;-85
2022/05/19 03:31:51;;;;;;;101.97;76.60;;;14.90;99.90;;;;;;5067500;28;20150;-84
2022/05/19 03:34:17;;;;;;;109.30;80.13;;;14.90;99.90;;;;;;5042212;28;20348;-85
2022/05/19 03:36:49;;;;;;;118.15;82.53;;;14.90;99.90;;;;;;5038825;28;20040;-85
2022/05/19 03:39:15;;;;;;;107.82;78.60;;;15.00;99.90;;;;;;5022648;28;20189;-85
2022/05/19 03:41:40;;;;;;;112.88;78.63;;;14.90;99.90;;;;;;5022229;28;20055;-85
2022/05/19 03:44:06;;;;;;;110.55;78.00;;;15.00;99.90;;;;;;5038318;28;20172;-84
2022/05/19 03:46:32;;;;;;;106.47;78.28;;;14.90;99.90;;;;;;5030924;28;20361;-84
2022/05/19 03:48:58;;;;;;;114.88;79.22;;;14.90;99.90;;;;;;5035427;28;20481;-84
2022/05/19 03:51:34;;;;;;;103.03;77.88;;;15.00;99.90;;;;;;5057381;28;20047;-85
2022/05/19 03:54:00;;;;;;;107.68;78.35;;;15.00;99.90;;;;;;5043047;28;20036;-85
2022/05/19 03:56:26;;;;;;;104.75;77.32;;;15.00;99.90;;;;;;5030839;28;20033;-85
2022/05/19 03:58:52;;;;;;;93.68;71.75;;;15.00;99.90;;;;;;5028813;28;20336;-84
2022/05/19 04:01:20;;;;;;;101.15;76.43;;;15.00;99.90;;;;;;5060892;28;20404;-85
2022/05/19 04:03:47;;;;;;;91.40;69.10;;;15.10;99.90;;;;;;5045367;28;20119;-85
2022/05/19 04:06:13;;;;;;;95.90;70.40;;;15.10;99.90;;;;;;5024712;28;20044;-85
2022/05/19 04:08:38;;;;;;;100.25;71.75;;;15.10;99.90;;;;;;5043892;28;20048;-83
2022/05/19 04:11:05;;;;;;;104.03;71.63;;;15.10;99.90;;;;;;5047673;28;20086;-83
2022/05/19 04:13:30;;;;;;;102.85;73.78;;;15.20;99.90;;;;;;5053216;28;20373;-83
2022/05/19 04:15:57;;;;;;;106.55;74.20;;;15.20;99.90;;;;;;5028005;28;20039;-83
2022/05/19 04:18:22;;;;;;;103.63;72.55;;;15.20;99.90;;;;;;5021322;28;20037;-83
2022/05/19 04:20:48;;;;;;;96.63;70.25;;;15.30;99.90;;;;;;5023723;28;20519;-83
2022/05/19 04:23:14;;;;;;;103.47;74.05;;;15.30;99.90;;;;;;5028219;28;20355;-83
2022/05/19 04:25:41;;;;;;;93.18;70.20;;;15.40;99.90;;;;;;5027265;28;20131;-83
2022/05/19 04:28:07;;;;;;;109.15;73.07;;;15.50;99.90;;;;;;5046561;28;20039;-83
2022/05/19 04:30:33;;;;;;;96.82;70.85;;;15.50;99.90;;;;;;5049046;28;20037;-83
2022/05/19 04:32:59;;;;;;;103.85;71.28;;;15.60;99.90;;;;;;5044683;28;20586;-83
2022/05/19 04:35:24;;;;;;;89.43;69.35;;;15.70;99.90;;;;;;5042708;28;20098;-82
2022/05/19 04:37:57;;;;;;;85.63;68.03;;;15.80;99.90;;;;;;5038112;28;20037;-83
2022/05/19 04:40:23;;;;;;;95.88;70.07;;;16.00;99.90;;;;;;5071551;28;20712;-83
2022/05/19 04:42:48;;;;;;;96.07;70.07;;;16.10;99.90;;;;;;5038501;28;20037;-83
2022/05/19 04:45:16;;;;;;;87.88;68.32;;;16.30;99.90;;;;;;5049185;28;20063;-83
2022/05/19 04:47:43;;;;;;;89.07;67.32;;;16.40;99.90;;;;;;5040934;28;20041;-83
2022/05/19 04:50:09;;;;;;;85.85;64.50;;;16.50;99.90;;;;;;5050973;28;20047;-83
2022/05/19 04:52:36;;;;;;;87.03;66.85;;;16.60;99.90;;;;;;5043833;28;20036;-83
2022/05/19 04:55:03;;;;;;;80.30;63.88;;;16.90;99.90;;;;;;5024178;28;20072;-83
2022/05/19 04:57:29;;;;;;;80.30;62.67;;;16.90;99.90;;;;;;5035818;28;20103;-83
2022/05/19 04:59:54;;;;;;;84.43;62.30;;;17.00;99.90;;;;;;5027438;28;20587;-83
2022/05/19 05:02:20;;;;;;;78.63;61.70;;;17.00;99.90;;;;;;5031875;28;20047;-83
2022/05/19 05:04:46;;;;;;;80.55;61.33;;;17.00;99.90;;;;;;5044460;28;20193;-83
2022/05/19 05:07:11;;;;;;;77.78;61.15;;;17.00;91.10;;;;;;5052960;28;20575;-83
2022/05/19 05:09:37;;;;;;;81.88;60.33;;;17.10;62.80;;;;;;5043573;28;20063;-83
2022/05/19 05:12:04;;;;;;;66.47;51.97;;;17.00;80.20;;;;;;5055657;28;20477;-82
2022/05/19 05:14:29;;;;;;;68.10;54.72;;;17.10;1.00;;;;;;5049425;28;20202;-83
2022/05/19 05:16:55;;;;;;;68.65;54.03;;;17.20;12.80;;;;;;5025990;28;20576;-83
2022/05/19 05:19:23;;;;;;;70.93;51.92;;;17.20;1.00;;;;;;5025377;28;20101;-83
2022/05/19 05:21:59;;;;;;;67.22;52.65;;;17.30;1.00;;;;;;5038273;28;20067;-83
2022/05/19 05:24:25;;;;;;;69.00;52.45;;;17.40;1.00;;;;;;5045249;28;20047;-83
2022/05/19 05:26:51;;;;;;;60.05;51.08;;;17.50;1.00;;;;;;5047062;28;20036;-83
2022/05/19 05:29:17;;;;;;;64.47;49.95;;;17.60;1.00;;;;;;5050729;28;20049;-83
2022/05/19 05:31:43;;;;;;;62.50;50.35;;;17.80;1.00;;;;;;5039006;28;20052;-83
2022/05/19 05:34:08;;;;;;;58.67;46.75;;;18.00;1.00;;;;;;5040764;28;20041;-83
2022/05/19 05:36:34;;;;;;;53.47;44.13;;;18.00;99.90;;;;;;5051629;28;20071;-83
2022/05/19 05:39:00;;;;;;;55.25;44.90;;;18.20;99.90;;;;;;5042913;28;20045;-83
2022/05/19 05:41:26;;;;;;;49.38;42.22;;;18.30;99.90;;;;;;5026749;28;20041;-83
2022/05/19 05:43:52;;;;;;;50.40;43.63;;;18.40;99.90;;;;;;5038320;28;20277;-83
2022/05/19 05:46:17;;;;;;;43.35;38.28;;;18.60;99.90;;;;;;5039204;28;20083;-83
2022/05/19 05:48:45;;;;;;;39.97;34.55;;;18.70;99.90;;;;;;5019430;28;20107;-83
2022/05/19 05:51:15;;;;;;;31.73;28.33;;;18.90;99.90;;;;;;5025260;28;20075;-83
2022/05/19 05:53:42;;;;;;;34.85;27.48;;;19.10;99.90;;;;;;5035754;28;20294;-83
2022/05/19 05:56:11;;;;;;;31.35;26.23;;;19.20;99.90;;;;;;5019925;28;20032;-83
2022/05/19 05:58:37;;;;;;;29.30;24.67;;;19.30;99.90;;;;;;5039415;28;20048;-83
2022/05/19 06:01:06;;;;;;;28.27;23.83;;;19.50;99.90;;;;;;5047579;28;20086;-83
2022/05/19 06:03:32;;;;;;;27.85;24.02;;;19.60;99.90;;;;;;5024415;28;20053;-83
2022/05/19 06:05:59;;;;;;;28.92;23.75;;;19.80;99.90;;;;;;5040882;28;20045;-83
2022/05/19 06:08:25;;;;;;;25.77;23.10;;;19.80;99.90;;;;;;5039935;28;20432;-83
2022/05/19 06:10:51;;;;;;;29.05;23.42;;;19.70;66.40;;;;;;5051220;28;20033;-82
2022/05/19 06:13:17;;;;;;;26.35;22.95;;;19.70;82.90;;;;;;5022553;28;20036;-83
2022/05/19 06:15:46;;;;;;;26.73;23.90;;;20.00;99.90;;;;;;5040191;28;20051;-85
2022/05/19 06:18:12;;;;;;;28.98;23.63;;;20.00;54.70;;;;;;5039100;28;20048;-85
2022/05/19 06:20:39;;;;;;;30.45;24.27;;;19.90;36.70;;;;;;5043586;28;20064;-85
2022/05/19 06:23:06;;;;;;;33.40;24.35;;;19.90;99.90;;;;;;5053172;28;20037;-85
2022/05/19 06:25:32;;;;;;;29.90;24.42;;;19.90;98.60;;;;;;5026604;28;20060;-85
2022/05/19 06:27:59;;;;;;;28.27;23.70;;;19.90;99.90;;;;;;5023789;28;20049;-85
2022/05/19 06:30:26;;;;;;;29.35;23.35;;;19.90;99.50;;;;;;5049918;28;20284;-85
2022/05/19 06:32:51;;;;;;;27.38;23.45;;;19.90;99.90;;;;;;5022161;28;20477;-85
2022/05/19 06:35:21;;;;;;;28.92;23.45;;;20.00;91.70;;;;;;5027791;28;20153;-85
2022/05/19 06:37:46;;;;;;;27.58;23.45;;;20.10;69.10;;;;;;5023419;28;20036;-85
2022/05/19 06:40:15;;;;;;;24.88;22.17;;;20.10;99.90;;;;;;5029514;28;20401;-85
2022/05/19 06:42:41;;;;;;;28.92;22.63;;;20.00;30.90;;;;;;5032794;28;20556;-84
2022/05/19 06:45:07;;;;;;;26.35;23.50;;;19.90;48.20;;;;;;5049441;28;20044;-85
2022/05/19 06:47:34;;;;;;;27.30;23.70;;;19.70;98.40;;;;;;5050895;28;20107;-85
2022/05/19 06:49:59;;;;;;;30.90;23.98;;;19.60;99.90;;;;;;5040035;28;20519;-84
2022/05/19 06:52:28;;;;;;;27.83;23.98;;;19.50;99.90;;;;;;5056248;28;20603;-85
2022/05/19 06:54:56;;;;;;;32.78;24.17;;;19.60;99.90;;;;;;5038651;28;20035;-85
2022/05/19 06:57:23;;;;;;;27.13;24.30;;;19.40;99.90;;;;;;5056976;28;20525;-85
2022/05/19 06:59:50;;;;;;;30.92;23.65;;;19.20;99.90;;;;;;5043805;28;20662;-84
2022/05/19 07:02:17;;;;;;;28.38;23.05;;;19.10;99.90;;;;;;5041774;28;20048;-85
2022/05/19 07:04:43;;;;;;;42.53;25.40;;;19.10;99.90;;;;;;5038727;28;20044;-85
2022/05/19 07:07:10;;;;;;;31.58;26.88;;;19.00;99.90;;;;;;5022495;28;20056;-86
2022/05/19 07:09:37;;;;;;;33.75;26.88;;;19.00;99.90;;;;;;5022480;28;20507;-85
2022/05/19 07:12:04;;;;;;;28.90;24.42;;;19.10;99.90;;;;;;5024604;28;20214;-84
2022/05/19 07:14:30;;;;;;;29.13;25.02;;;19.10;99.90;;;;;;5039309;28;20136;-85
2022/05/19 07:16:56;;;;;;;30.23;26.85;;;19.00;99.90;;;;;;5027701;28;20040;-84
2022/05/19 07:22:08;;;;;;;31.55;25.92;;;19.10;99.90;;;;;;5037171;28;20041;-86
2022/05/19 07:24:34;;;;;;;29.27;26.10;;;19.20;99.90;;;;;;5056446;28;20538;-85
2022/05/19 07:27:00;;;;;;;30.83;26.88;;;19.00;99.90;;;;;;5044906;28;20040;-85
2022/05/19 07:29:27;;;;;;;31.20;27.55;;;18.90;99.90;;;;;;5053716;28;20072;-85
2022/05/19 07:32:00;;;;;;;34.60;28.85;;;18.90;99.90;;;;;;5052628;28;20132;-85
2022/05/19 07:34:28;;;;;;;30.25;26.98;;;18.90;99.90;;;;;;5034891;28;20441;-85
2022/05/19 07:36:55;;;;;;;27.98;23.90;;;18.80;99.90;;;;;;5023412;28;20929;-85
2022/05/19 07:39:22;;;;;;;24.58;21.67;;;18.70;99.90;;;;;;5028853;28;20036;-84
2022/05/19 07:41:47;;;;;;;27.23;24.02;;;18.60;99.90;;;;;;5023257;28;20115;-84
2022/05/19 07:44:13;;;;;;;26.95;22.08;;;18.70;99.90;;;;;;5053456;28;20084;-84
2022/05/19 07:46:39;;;;;;;25.05;22.15;;;18.70;99.90;;;;;;5047665;28;20045;-85
2022/05/19 07:49:05;;;;;;;27.63;21.92;;;18.60;99.90;;;;;;5022314;28;20107;-85
2022/05/19 07:51:39;;;;;;;24.63;21.95;;;18.80;99.90;;;;;;5052667;28;20118;-85
2022/05/19 07:54:10;;;;;;;26.73;21.73;;;18.90;99.90;;;;;;5044552;28;20033;-84
2022/05/19 07:56:38;;;;;;;26.00;23.23;;;19.00;99.90;;;;;;5042918;28;20032;-85
2022/05/19 07:59:04;;;;;;;24.95;21.38;;;18.90;99.90;;;;;;5023730;28;20049;-85
2022/05/19 08:01:30;;;;;;;25.58;22.55;;;19.00;99.90;;;;;;5038446;28;20058;-85
2022/05/19 08:03:58;;;;;;;25.20;22.30;;;19.30;99.90;;;;;;5021395;28;20549;-85
2022/05/19 08:06:24;;;;;;;26.98;21.77;;;19.30;99.90;;;;;;5035815;28;20535;-85
2022/05/19 08:08:50;;;;;;;25.92;22.73;;;19.40;99.90;;;;;;5025928;28;20048;-85
2022/05/19 08:11:16;;;;;;;22.42;20.13;;;19.40;99.90;;;;;;5024348;28;20029;-85
2022/05/19 08:16:26;;;;;;;23.67;21.25;;;19.90;99.90;;;;;;5038918;28;20037;-84
2022/05/19 08:18:51;;;;;;;27.38;21.85;;;20.10;99.90;;;;;;5026876;28;20032;-84
2022/05/19 08:21:17;;;;;;;28.35;21.83;;;20.30;99.90;;;;;;5050054;28;20560;-84
2022/05/19 08:23:47;;;;;;;23.33;20.92;;;20.20;99.90;;;;;;5038687;28;20052;-85
2022/05/19 08:26:13;;;;;;;25.00;22.20;;;20.20;99.90;;;;;;5027557;28;20128;-85
2022/05/19 08:28:40;;;;;;;23.48;20.98;;;20.20;99.90;;;;;;5054322;28;20048;-84
2022/05/19 08:31:12;;;;;;;23.08;20.77;;;20.20;99.90;;;;;;5037761;28;20484;-84
2022/05/19 08:33:40;;;;;;;24.23;21.35;;;20.40;99.90;;;;;;5052556;28;20037;-85
2022/05/19 08:36:07;;;;;;;24.15;21.58;;;20.40;99.90;;;;;;5071918;28;20128;-85
2022/05/19 08:38:34;;;;;;;22.90;20.60;;;20.60;99.90;;;;;;5057909;28;20051;-85
2022/05/19 08:41:06;;;;;;;22.80;20.38;;;20.40;99.90;;;;;;5027602;28;20041;-85
2022/05/19 08:44:03;;;;;;;22.42;20.13;;;20.70;99.90;;;;;;5054156;28;20323;-84
2022/05/19 08:46:32;;;;;;;22.30;19.90;;;20.70;99.90;;;;;;5069823;28;20033;-85
2022/05/19 08:49:26;;;;;;;23.23;20.33;;;21.00;99.90;;;;;;5038842;28;20058;-85
2022/05/19 08:52:07;;;;;;;26.52;20.83;;;21.10;93.30;;;;;;5055520;28;20116;-84
2022/05/19 08:54:35;;;;;;;21.55;19.00;;;21.30;92.80;;;;;;5042721;28;20399;-84
2022/05/19 08:57:20;;;;;;;24.25;18.77;;;21.60;85.10;;;;;;5070957;28;20033;-85
2022/05/19 09:00:10;;;;;;;22.27;18.58;;;21.70;49.70;;;;;;5045220;28;20043;-84
2022/05/19 09:02:57;;;;;;;20.60;18.38;;;21.90;28.60;;;;;;5043349;28;20052;-85
2022/05/19 09:05:42;;;;;;;23.77;18.08;;;22.40;67.10;;;;;;5033868;28;20386;-85
2022/05/19 09:08:20;;;;;;;21.98;18.25;;;22.70;1.00;;;;;;5058669;28;20178;-84
2022/05/19 09:11:10;;;;;;;19.77;17.33;;;22.60;1.00;;;;;;5041519;28;20194;-84
2022/05/19 09:13:55;;;;;;;21.45;17.70;;;22.60;1.00;;;;;;5057463;28;20037;-85
2022/05/19 09:16:35;;;;;;;21.85;17.60;;;22.60;1.00;;;;;;5048805;28;20041;-84
2022/05/19 09:19:07;;;;;;;19.42;17.35;;;23.00;1.00;;;;;;5029619;28;20050;-85
2022/05/19 09:21:35;;;;;;;17.77;15.93;;;23.20;1.00;;;;;;5079997;28;20048;-85
2022/05/19 09:24:02;;;;;;;19.13;17.13;;;23.30;1.00;;;;;;5024881;28;20041;-83
2022/05/19 09:26:46;;;;;;;17.80;15.90;;;23.10;1.00;;;;;;5043059;28;20033;-84
2022/05/19 09:29:19;;;;;;;18.80;16.03;;;23.40;1.00;;;;;;5042133;28;20524;-85
2022/05/19 09:31:50;;;;;;;18.73;16.45;;;23.30;1.00;;;;;;5070677;28;20079;-85
2022/05/19 09:34:16;;;;;;;16.98;15.18;;;23.30;99.90;;;;;;5020714;28;20468;-85
2022/05/19 09:37:00;;;;;;;16.83;14.70;;;23.00;99.90;;;;;;5060895;28;20041;-84
2022/05/19 09:39:33;;;;;;;17.48;15.50;;;23.40;99.90;;;;;;5028809;28;20032;-85
2022/05/19 09:42:08;;;;;;;18.50;16.60;;;23.70;99.90;;;;;;5047958;28;20212;-85
2022/05/19 09:44:38;;;;;;;16.00;14.40;;;23.60;99.90;;;;;;5027910;28;20040;-85
2022/05/19 09:47:30;;;;;;;16.17;14.45;;;24.00;99.90;;;;;;5024638;28;20077;-84
2022/05/19 09:50:07;;;;;;;17.27;14.35;;;23.70;99.90;;;;;;5039099;28;20140;-84
2022/05/19 09:52:33;;;;;;;14.18;12.77;;;24.20;1.00;;;;;;5025352;28;20032;-85
2022/05/19 09:55:03;;;;;;;12.90;11.40;;;24.40;99.90;;;;;;5025154;28;20807;-85
2022/05/19 09:57:45;;;;;;;13.80;12.27;;;24.50;99.90;;;;;;5018055;28;20036;-84
2022/05/19 10:00:34;;;;;;;14.73;13.13;;;24.50;99.90;;;;;;5040700;28;20045;-84
2022/05/19 10:03:02;;;;;;;14.20;11.93;;;23.80;99.90;;;;;;5039761;28;20068;-85
2022/05/19 10:05:40;;;;;;;14.85;12.57;;;24.30;99.90;;;;;;5047035;28;20037;-84
2022/05/19 10:08:15;;;;;;;13.10;11.25;;;24.00;99.90;;;;;;5049869;28;20287;-85
2022/05/19 10:10:59;;;;;;;13.15;10.60;;;24.30;99.90;;;;;;5029252;28;20132;-84
2022/05/19 10:13:31;;;;;;;13.02;11.25;;;24.10;99.90;;;;;;5055456;28;20036;-83
2022/05/19 10:16:09;;;;;;;15.98;12.85;;;24.40;99.90;;;;;;5050475;28;20124;-84
2022/05/19 10:18:54;;;;;;;13.93;12.52;;;24.70;99.90;;;;;;5055911;28;20401;-84
2022/05/19 10:21:53;;;;;;;14.10;11.95;;;24.60;99.90;;;;;;5040472;28;20045;-84
2022/05/19 10:24:53;;;;;;;11.85;10.43;;;24.80;99.90;;;;;;5046199;28;21156;-84
2022/05/19 10:33:29;;;;;;;;;;;25.30;99.90;;;;;;5047286;28;20122;-83
2022/05/19 10:36:13;;;;;;;9.55;8.60;;;25.30;99.90;;;;;;5041849;28;19976;-84
2022/05/19 10:39:08;;;;;;;9.82;7.43;;;25.60;99.90;;;;;;5023261;28;20091;-83
2022/05/19 10:41:49;;;;;;;8.73;7.30;;;26.50;99.90;;;;;;5039439;28;20029;-84
2022/05/19 10:44:39;;;;;;;8.70;7.80;;;26.60;99.90;;;;;;5024498;28;20053;-84
2022/05/19 10:47:20;;;;;;;9.70;8.70;;;26.50;99.90;;;;;;5039520;28;20044;-84
2022/05/19 10:49:58;;;;;;;10.10;9.07;;;26.30;99.90;;;;;;5052031;28;20128;-84
2022/05/19 10:52:26;;;;;;;8.98;7.72;;;26.10;99.90;;;;;;5041158;28;20400;-84
2022/05/19 10:55:03;;;;;;;9.77;7.55;;;26.00;99.90;;;;;;5042197;28;20118;-84
2022/05/19 10:57:41;;;;;;;11.30;9.15;;;25.80;99.90;;;;;;5021205;28;20457;-84
2022/05/19 11:00:17;;;;;;;10.88;9.00;;;25.80;99.90;;;;;;5057148;28;20182;-84
2022/05/19 11:02:43;;;;;;;10.00;8.20;;;25.40;99.90;;;;;;5024112;28;20040;-84
2022/05/19 11:05:32;;;;;;;11.88;8.85;;;25.10;99.90;;;;;;5021756;28;20342;-84
2022/05/19 11:08:23;;;;;;;12.02;10.20;;;25.00;99.90;;;;;;5047444;28;20045;-84
2022/05/19 11:11:09;;;;;;;11.63;9.90;;;25.10;99.90;;;;;;5071312;28;20033;-84
2022/05/19 11:14:01;;;;;;;11.88;10.43;;;25.50;99.90;;;;;;5022170;28;20097;-84
2022/05/19 11:16:52;;;;;;;14.75;10.43;;;26.10;99.90;;;;;;5060018;28;20115;-84
2022/05/19 11:19:26;;;;;;;10.00;8.95;;;26.20;99.90;;;;;;5021453;28;20542;-84
2022/05/19 11:22:04;;;;;;;11.75;10.52;;;26.70;99.90;;;;;;5025124;28;20369;-84
2022/05/19 11:27:51;;;;;;;13.32;11.93;;;26.40;99.90;;;;;;5034496;28;20064;-83
2022/05/19 11:30:25;;;;;;;15.63;13.70;;;26.80;99.90;;;;;;5018198;28;20132;-84
2022/05/19 11:32:57;;;;;;;14.57;12.90;;;26.50;99.90;;;;;;5039973;28;20032;-84
2022/05/19 11:35:36;;;;;;;15.20;13.60;;;26.40;99.90;;;;;;5035725;28;20571;-83
2022/05/19 11:38:10;;;;;;;14.82;13.38;;;26.90;99.90;;;;;;5024247;28;20079;-84
2022/05/19 11:40:59;;;;;;;14.95;12.98;;;27.20;99.90;;;;;;5022190;28;20502;-84
2022/05/19 11:43:34;;;;;;;14.55;13.02;;;27.30;99.90;;;;;;5048585;28;20033;-84
2022/05/19 11:46:22;;;;;;;14.43;12.93;;;27.80;99.90;;;;;;5026831;28;20036;-84
2022/05/19 11:55:16;;;;;;;13.88;12.43;;;27.50;99.90;;;;;;5028495;28;20090;-84
2022/05/19 11:58:04;;;;;;;13.63;12.02;;;26.80;99.90;;;;;;5023020;28;20048;-84
2022/05/19 12:00:46;;;;;;;11.57;10.32;;;27.20;99.90;;;;;;5022636;28;20528;-84
2022/05/19 12:03:21;;;;;;;12.85;9.55;;;27.30;99.90;;;;;;5037800;28;20189;-84
2022/05/19 12:06:00;;;;;;;12.50;9.02;;;27.30;99.90;;;;;;5039770;28;20052;-84
2022/05/19 12:08:44;;;;;;;10.85;8.85;;;26.90;99.90;;;;;;5042998;28;20044;-84
2022/05/19 12:11:44;;;;;;;12.20;10.70;;;26.90;99.90;;;;;;5026698;28;20037;-84
2022/05/19 12:14:25;;;;;;;12.70;10.65;;;26.30;99.90;;;;;;5080590;28;20082;-84
2022/05/19 12:16:55;;;;;;;12.25;9.43;;;26.40;99.90;;;;;;5036335;28;20824;-84
2022/05/19 12:19:38;;;;;;;10.75;9.40;;;26.20;99.90;;;;;;5028746;28;20068;-84
2022/05/19 12:22:47;;;;;;;9.20;8.30;;;26.20;99.90;;;;;;5057625;28;20294;-85
2022/05/19 12:25:16;;;;;;;9.82;8.90;;;26.00;99.90;;;;;;5040410;28;20048;-84
2022/05/19 12:28:00;;;;;;;13.60;9.27;;;26.20;99.90;;;;;;5056904;28;20048;-84
2022/05/19 12:33:15;;;;;;;12.48;10.40;;;26.00;99.90;;;;;;5071633;28;20098;-84
2022/05/19 12:35:47;;;;;;;11.90;10.27;;;25.70;99.90;;;;;;5024110;28;20045;-84
2022/05/19 12:38:35;;;;;;;10.55;8.90;;;25.50;99.90;;;;;;5029350;28;20125;-84
2022/05/19 12:41:06;;;;;;;11.23;8.90;;;25.30;99.90;;;;;;5042318;28;20095;-84
2022/05/19 12:43:40;;;;;;;12.48;10.80;;;25.20;99.90;;;;;;5069242;28;20036;-84
2022/05/19 12:46:11;;;;;;;13.15;11.02;;;24.90;99.90;;;;;;5042056;28;20254;-84
2022/05/19 12:48:37;;;;;;;15.90;12.27;;;24.80;99.90;;;;;;5038679;28;20040;-84
2022/05/19 12:51:06;;;;;;;12.70;10.30;;;24.60;99.90;;;;;;5028123;28;20457;-85
2022/05/19 12:53:40;;;;;;;12.57;11.20;;;24.40;99.90;;;;;;5038756;28;20029;-85
2022/05/19 12:56:06;;;;;;;;;;;24.20;99.90;;;;;;5070266;28;20025;-84
2022/05/19 12:58:37;;;;;;;13.80;11.77;;;24.10;99.90;;;;;;5039493;28;20007;-84
2022/05/19 13:01:13;;;;;;;13.90;11.55;;;23.90;99.90;;;;;;5049160;28;20071;-84
2022/05/19 13:03:42;;;;;;;15.43;10.75;;;23.80;99.90;;;;;;5018925;28;20098;-84
2022/05/19 13:06:12;;;;;;;13.38;10.10;;;23.70;99.90;;;;;;5070771;28;20446;-84
2022/05/19 13:08:42;;;;;;;11.75;10.32;;;23.50;99.90;;;;;;5047914;28;20436;-84
2022/05/19 13:11:11;;;;;;;11.50;8.40;;;23.30;99.90;;;;;;5027814;28;20033;-83
2022/05/19 13:13:40;;;;;;;9.30;6.20;;;22.70;1.00;;;;;;5023951;28;20024;-84
2022/05/19 13:16:30;;;;;;;9.30;6.65;;;21.40;8.60;;;;;;5053661;28;20108;-84